createdAt,value
2022-11-17T00:03:53.491Z,100032.28
2022-11-17T00:08:57.160Z,100039.44
2022-11-17T00:14:19.836Z,100015.88
2022-11-17T00:19:44.839Z,100018.69
2022-11-17T00:24:51.742Z,99979.34
2022-11-17T00:29:53.478Z,99981.38
2022-11-17T00:34:57.826Z,99948.81
2022-11-17T00:40:01.101Z,99943.84
2022-11-17T00:45:08.722Z,99953.66
2022-11-17T00:50:10.411Z,99936.72
2022-11-17T00:55:17.046Z,99933.41
2022-11-17T01:00:21.293Z,99942.19
2022-11-17T01:05:22.993Z,99944.03
2022-11-17T01:10:25.581Z,99917.63
2022-11-17T01:15:31.116Z,99904.34
2022-11-17T01:20:36.358Z,99884.09
2022-11-17T01:25:40.987Z,99868.16
2022-11-17T01:30:44.780Z,99865.50
2022-11-17T01:35:48.458Z,99850.38
2022-11-17T01:40:50.599Z,99837.25
2022-11-17T01:45:52.305Z,99817.81
2022-11-17T01:50:54.237Z,99809.22
2022-11-17T01:55:58.788Z,99814.69
2022-11-17T02:01:05.703Z,99802.22
2022-11-17T02:06:38.137Z,99790.78
2022-11-17T02:11:41.952Z,99773.53
2022-11-17T02:16:45.676Z,99761.09
2022-11-17T02:22:02.647Z,99765.78
2022-11-17T02:27:32.423Z,99767.59
2022-11-17T02:33:03.517Z,99756.31
2022-11-17T02:38:09.318Z,99734.44
2022-11-17T02:43:32.942Z,99727.63
2022-11-17T02:48:41.700Z,99741.13
2022-11-17T02:53:49.615Z,99746.63
2022-11-17T02:58:55.997Z,99736.81
2022-11-17T03:04:15.933Z,99730.03
2022-11-17T03:09:46.080Z,99706.50
2022-11-17T03:15:12.769Z,99712.63
2022-11-17T03:20:18.537Z,99725.25
2022-11-17T03:25:24.262Z,99701.34
2022-11-17T03:30:29.947Z,99700.72
2022-11-17T03:35:37.123Z,99685.75
2022-11-17T03:40:47.684Z,99680.44
2022-11-17T03:45:54.056Z,99684.31
2022-11-17T03:50:59.210Z,99683.66
2022-11-17T03:56:09.364Z,99675.00
2022-11-17T04:01:11.261Z,99673.38
2022-11-17T04:06:15.288Z,99680.53
2022-11-17T04:11:37.411Z,99663.13
2022-11-17T04:16:42.331Z,99651.00
2022-11-17T04:21:46.103Z,99667.31
2022-11-17T04:27:11.993Z,99650.75
2022-11-17T04:32:14.122Z,99644.78
2022-11-17T04:37:20.721Z,99630.22
2022-11-17T04:42:22.492Z,99627.13
2022-11-17T04:47:26.718Z,99636.25
2022-11-17T04:52:33.836Z,99641.13
2022-11-17T04:57:35.484Z,99635.34
2022-11-17T05:02:37.269Z,99629.59
2022-11-17T05:07:39.029Z,99623.63
2022-11-17T05:12:59.137Z,99634.44
2022-11-17T05:18:00.866Z,99625.66
2022-11-17T05:23:21.971Z,99639.91
2022-11-17T05:28:23.713Z,99613.53
2022-11-17T05:33:34.915Z,99602.91
2022-11-17T05:38:39.336Z,99627.19
2022-11-17T05:43:41.145Z,99607.16
2022-11-17T05:48:42.860Z,99604.13
2022-11-17T05:53:44.564Z,99600.09
2022-11-17T05:58:51.250Z,99597.81
2022-11-17T06:03:56.293Z,99602.47
2022-11-17T06:08:59.280Z,99601.41
2022-11-17T06:14:00.985Z,99598.00
2022-11-17T06:19:08.076Z,99585.72
2022-11-17T06:24:14.089Z,99578.00
2022-11-17T06:29:21.124Z,99579.44
2022-11-17T06:34:22.919Z,99582.97
2022-11-17T06:39:29.066Z,99565.66
2022-11-17T06:44:37.581Z,99560.91
2022-11-17T06:49:39.917Z,99561.44
2022-11-17T06:54:41.630Z,99560.13
2022-11-17T06:59:52.457Z,99552.72
2022-11-17T07:05:01.379Z,99575.13
2022-11-17T07:10:08.441Z,99548.50
2022-11-17T07:15:10.454Z,99548.00
2022-11-17T07:20:12.859Z,99537.94
2022-11-17T07:25:22.298Z,99531.66
2022-11-17T07:30:29.047Z,99535.47
2022-11-17T07:35:35.237Z,99526.88
2022-11-17T07:40:40.277Z,99547.59
2022-11-17T07:45:41.923Z,99540.66
2022-11-17T07:50:47.001Z,99532.03
2022-11-17T07:55:50.922Z,99541.53
2022-11-17T08:00:53.784Z,99529.63
2022-11-17T08:05:55.541Z,99511.63
2022-11-17T08:10:57.531Z,99509.78
2022-11-17T08:16:02.833Z,99493.25
2022-11-17T08:21:06.952Z,99508.16
2022-11-17T08:26:11.901Z,99499.38
2022-11-17T08:31:16.117Z,99506.50
2022-11-17T08:36:17.887Z,99494.91
2022-11-17T08:41:22.073Z,99493.25
2022-11-17T08:46:26.684Z,99486.50
2022-11-17T08:51:30.962Z,99475.25
2022-11-17T08:56:35.060Z,99464.00
2022-11-17T09:01:40.310Z,99463.66
2022-11-17T09:06:42.042Z,99463.47
2022-11-17T09:11:46.736Z,99431.50
2022-11-17T09:16:48.434Z,99452.88
2022-11-17T09:21:50.326Z,99467.47
2022-11-17T09:26:57.896Z,99472.47
2022-11-17T09:31:59.671Z,99483.06
2022-11-17T09:37:04.125Z,99492.03
2022-11-17T09:42:06.064Z,99501.78
2022-11-17T09:47:41.526Z,99483.06
2022-11-17T09:52:59.389Z,99501.44
2022-11-17T09:58:48.191Z,99485.84
2022-11-17T10:03:53.620Z,99491.41
2022-11-17T10:09:25.618Z,99490.28
2022-11-17T10:14:28.177Z,99487.41
2022-11-17T10:19:34.581Z,99501.47
2022-11-17T10:24:39.324Z,99488.44
2022-11-17T10:30:18.808Z,99491.91
2022-11-17T10:35:30.648Z,99500.66
2022-11-17T10:40:40.429Z,99490.28
2022-11-17T10:46:01.186Z,99483.78
2022-11-17T10:51:19.322Z,99486.88
2022-11-17T10:56:24.937Z,99496.78
2022-11-17T11:01:36.196Z,99502.56
2022-11-17T11:06:38.928Z,99490.84
2022-11-17T11:11:54.326Z,99499.16
2022-11-17T11:16:56.222Z,99491.19
2022-11-17T11:22:20.988Z,99494.66
2022-11-17T11:27:38.639Z,99483.38
2022-11-17T11:32:52.154Z,99478.72
2022-11-17T11:38:00.004Z,99498.72
2022-11-17T11:43:33.318Z,99490.41
2022-11-17T11:48:40.765Z,99484.13
2022-11-17T11:54:12.024Z,99480.47
2022-11-17T11:59:30.018Z,99504.69
2022-11-17T12:04:47.837Z,99495.72
2022-11-17T12:10:10.005Z,99488.78
2022-11-17T12:15:18.100Z,99509.63
2022-11-17T12:20:38.377Z,99489.91
2022-11-17T12:25:50.642Z,99494.84
2022-11-17T12:31:10.117Z,99498.59
2022-11-17T12:36:36.908Z,99500.91
2022-11-17T12:41:47.535Z,99493.59
2022-11-17T12:46:50.518Z,99505.81
2022-11-17T12:52:00.893Z,99505.81
2022-11-17T12:57:17.402Z,99520.91
2022-11-17T13:02:31.182Z,99506.78
2022-11-17T13:07:35.380Z,99508.53
2022-11-17T13:12:37.384Z,99519.13
2022-11-17T13:17:45.344Z,99509.16
2022-11-17T13:23:20.768Z,99518.78
2022-11-17T13:28:30.516Z,99512.63
2022-11-17T13:33:39.980Z,99528.91
2022-11-17T13:38:52.554Z,99525.63
2022-11-17T13:43:55.087Z,99536.06
2022-11-17T13:48:59.003Z,99537.03
2022-11-17T13:54:28.472Z,99534.56
2022-11-17T13:59:36.602Z,99539.88
2022-11-17T14:05:18.400Z,99542.50
2022-11-17T14:10:22.896Z,99527.78
2022-11-17T14:15:29.323Z,99541.41
2022-11-17T14:20:38.233Z,99552.03
2022-11-17T14:25:46.244Z,99558.31
2022-11-17T14:30:54.297Z,99560.97
2022-11-17T14:35:58.676Z,99558.69
2022-11-17T14:41:00.408Z,99553.38
2022-11-17T14:46:05.412Z,99559.50
2022-11-17T14:51:08.502Z,99561.16
2022-11-17T14:56:10.946Z,99587.03
2022-11-17T15:01:18.745Z,99589.66
2022-11-17T15:06:21.085Z,99567.66
2022-11-17T15:11:26.364Z,99581.72
2022-11-17T15:16:30.289Z,99591.66
2022-11-17T15:21:32.017Z,99599.78
2022-11-17T15:26:39.604Z,99603.47
2022-11-17T15:31:41.846Z,99605.25
2022-11-17T15:36:48.554Z,99615.03
2022-11-17T15:41:50.815Z,99602.97
2022-11-17T15:46:52.863Z,99608.91
2022-11-17T15:51:54.720Z,99610.91
2022-11-17T15:57:01.448Z,99610.91
2022-11-17T16:02:09.082Z,99610.91
2022-11-17T16:07:11.917Z,99604.97
2022-11-17T16:12:13.797Z,99611.28
2022-11-17T16:17:18.341Z,99620.38
2022-11-17T16:22:20.116Z,99623.03
2022-11-17T16:27:24.438Z,99622.06
2022-11-17T16:32:30.743Z,99643.25
2022-11-17T16:37:32.812Z,99628.16
2022-11-17T16:42:35.697Z,99642.25
2022-11-17T16:47:39.940Z,99635.97
2022-11-17T16:52:46.754Z,99643.53
2022-11-17T16:57:51.760Z,99656.63
2022-11-17T17:02:58.437Z,99653.97
2022-11-17T17:08:02.584Z,99660.91
2022-11-17T17:13:07.356Z,99659.94
2022-11-17T17:18:12.341Z,99662.59
2022-11-17T17:23:16.933Z,99664.22
2022-11-17T17:28:22.461Z,99664.06
2022-11-17T17:33:27.056Z,99670.19
2022-11-17T17:38:31.604Z,99672.66
2022-11-17T17:43:36.950Z,99674.31
2022-11-17T17:48:39.835Z,99690.41
2022-11-17T17:53:45.171Z,99698.34
2022-11-17T17:58:51.616Z,99695.34
2022-11-17T18:03:59.286Z,99703.28
2022-11-17T18:09:01.254Z,99705.78
2022-11-17T18:14:04.330Z,99719.19
2022-11-17T18:19:14.490Z,99729.66
2022-11-17T18:24:19.871Z,99738.09
2022-11-17T18:29:21.829Z,99740.75
2022-11-17T18:34:25.508Z,99741.72
2022-11-17T18:39:35.234Z,99740.09
2022-11-17T18:44:37.024Z,99735.59
2022-11-17T18:49:43.601Z,99737.44
2022-11-17T18:54:45.266Z,99739.22
2022-11-17T18:59:49.370Z,99745.38
2022-11-17T19:04:53.664Z,99744.53
2022-11-17T19:09:55.830Z,99765.59
2022-11-17T19:15:00.208Z,99759.47
2022-11-17T19:20:04.332Z,99777.84
2022-11-17T19:25:08.749Z,99779.50
2022-11-17T19:30:13.603Z,99784.78
2022-11-17T19:35:21.299Z,99782.97
2022-11-17T19:40:25.303Z,99780.31
2022-11-17T19:45:27.586Z,99788.47
2022-11-17T19:50:31.761Z,99788.63
2022-11-17T19:55:39.232Z,99792.09
2022-11-17T20:00:45.283Z,99785.97
2022-11-17T20:05:49.295Z,99781.50
2022-11-17T20:11:04.444Z,99786.13
2022-11-17T20:16:12.023Z,99791.44
2022-11-17T20:21:17.987Z,99796.75
2022-11-17T20:26:22.057Z,99804.84
2022-11-17T20:31:31.376Z,99826.91
2022-11-17T20:36:34.435Z,99835.03
2022-11-17T20:41:36.091Z,99837.69
2022-11-17T20:46:37.787Z,99848.44
2022-11-17T20:51:42.979Z,99845.34
2022-11-17T20:56:47.472Z,99858.44
2022-11-17T21:01:50.529Z,99872.00
2022-11-17T21:06:55.594Z,99886.28
2022-11-17T21:12:00.512Z,99885.97
2022-11-17T21:17:24.897Z,99893.41
2022-11-17T21:22:26.600Z,99902.53
2022-11-17T21:27:32.722Z,99899.22
2022-11-17T21:32:34.478Z,99898.72
2022-11-17T21:37:38.325Z,99906.81
2022-11-17T21:42:44.612Z,99903.53
2022-11-17T21:47:56.520Z,99920.06
2022-11-17T21:53:05.347Z,99902.03
2022-11-17T21:58:12.491Z,99908.50
2022-11-17T22:03:17.169Z,99909.81
2022-11-17T22:08:23.221Z,99913.78
2022-11-17T22:13:29.408Z,99926.53
2022-11-17T22:18:34.882Z,99940.94
2022-11-17T22:23:39.389Z,99947.38
2022-11-17T22:28:43.453Z,99952.19
2022-11-17T22:33:50.855Z,99957.78
2022-11-17T22:38:53.655Z,99962.13
2022-11-17T22:43:56.439Z,99963.09
2022-11-17T22:48:59.006Z,99967.56
2022-11-17T22:54:03.303Z,99981.97
2022-11-17T22:59:05.807Z,99980.13
2022-11-17T23:04:07.488Z,99990.91
2022-11-17T23:09:12.906Z,99995.22
2022-11-17T23:14:14.859Z,99996.22
2022-11-17T23:19:18.974Z,99988.41
2022-11-17T23:24:25.439Z,99996.38
2022-11-17T23:29:30.719Z,99996.66
2022-11-17T23:34:38.250Z,100007.25
2022-11-17T23:39:45.280Z,100009.91
2022-11-17T23:44:52.944Z,100013.56
2022-11-17T23:49:56.864Z,100022.81
2022-11-17T23:55:00.951Z,100027.59
